sensor_id;sensor_type;location;lat;lon;timestamp;temperature;humidity
12872;DHT22;6504;53.766;9.626;2022-08-07T00:01:13;14.80;99.90
12872;DHT22;6504;53.766;9.626;2022-08-07T00:04:00;14.80;99.90
12872;DHT22;6504;53.766;9.626;2022-08-07T00:06:53;14.70;99.90
12872;DHT22;6504;53.766;9.626;2022-08-07T00:09:42;14.70;99.90
12872;DHT22;6504;53.766;9.626;2022-08-07T00:12:30;14.60;99.90
12872;DHT22;6504;53.766;9.626;2022-08-07T00:15:17;14.60;99.90
12872;DHT22;6504;53.766;9.626;2022-08-07T00:18:11;14.60;99.90
12872;DHT22;6504;53.766;9.626;2022-08-07T00:21:00;14.60;99.90
12872;DHT22;6504;53.766;9.626;2022-08-07T00:23:47;14.60;99.90
12872;DHT22;6504;53.766;9.626;2022-08-07T00:26:38;14.50;99.90
12872;DHT22;6504;53.766;9.626;2022-08-07T00:29:25;14.50;99.90
12872;DHT22;6504;53.766;9.626;2022-08-07T00:32:14;14.40;99.90
12872;DHT22;6504;53.766;9.626;2022-08-07T00:35:04;14.50;99.90
12872;DHT22;6504;53.766;9.626;2022-08-07T00:37:53;14.40;99.90
12872;DHT22;6504;53.766;9.626;2022-08-07T00:40:43;14.40;99.90
12872;DHT22;6504;53.766;9.626;2022-08-07T00:43:31;14.40;99.90
12872;DHT22;6504;53.766;9.626;2022-08-07T00:46:18;14.40;99.90
12872;DHT22;6504;53.766;9.626;2022-08-07T00:49:13;14.30;99.90
12872;DHT22;6504;53.766;9.626;2022-08-07T00:52:00;14.40;99.90
12872;DHT22;6504;53.766;9.626;2022-08-07T00:54:47;14.30;99.90
12872;DHT22;6504;53.766;9.626;2022-08-07T00:57:38;14.30;99.90
12872;DHT22;6504;53.766;9.626;2022-08-07T01:00:31;14.20;99.90
12872;DHT22;6504;53.766;9.626;2022-08-07T01:03:18;14.20;99.90
12872;DHT22;6504;53.766;9.626;2022-08-07T01:06:06;14.20;99.90
12872;DHT22;6504;53.766;9.626;2022-08-07T01:09:00;14.10;99.90
12872;DHT22;6504;53.766;9.626;2022-08-07T01:11:54;14.10;99.90
12872;DHT22;6504;53.766;9.626;2022-08-07T01:14:50;14.00;99.90
12872;DHT22;6504;53.766;9.626;2022-08-07T01:18:08;13.90;99.90
12872;DHT22;6504;53.766;9.626;2022-08-07T01:21:05;13.90;99.90
12872;DHT22;6504;53.766;9.626;2022-08-07T01:23:51;13.80;99.90
12872;DHT22;6504;53.766;9.626;2022-08-07T01:26:23;13.80;99.90
12872;DHT22;6504;53.766;9.626;2022-08-07T01:28:53;13.70;99.90
12872;DHT22;6504;53.766;9.626;2022-08-07T01:31:26;13.70;99.90
12872;DHT22;6504;53.766;9.626;2022-08-07T01:34:09;13.70;99.90
12872;DHT22;6504;53.766;9.626;2022-08-07T01:36:42;13.70;99.90
12872;DHT22;6504;53.766;9.626;2022-08-07T01:39:25;13.70;99.90
12872;DHT22;6504;53.766;9.626;2022-08-07T01:42:13;13.70;99.90
12872;DHT22;6504;53.766;9.626;2022-08-07T01:45:08;13.70;99.90
12872;DHT22;6504;53.766;9.626;2022-08-07T01:47:45;13.70;99.90
12872;DHT22;6504;53.766;9.626;2022-08-07T01:50:36;13.70;99.90
12872;DHT22;6504;53.766;9.626;2022-08-07T01:53:16;13.70;99.90
12872;DHT22;6504;53.766;9.626;2022-08-07T01:56:14;13.70;99.90
12872;DHT22;6504;53.766;9.626;2022-08-07T01:59:05;13.70;99.90
12872;DHT22;6504;53.766;9.626;2022-08-07T02:01:45;13.60;99.90
12872;DHT22;6504;53.766;9.626;2022-08-07T02:04:37;13.60;99.90
12872;DHT22;6504;53.766;9.626;2022-08-07T02:07:25;13.60;99.90
12872;DHT22;6504;53.766;9.626;2022-08-07T02:10:22;13.50;99.90
12872;DHT22;6504;53.766;9.626;2022-08-07T02:12:59;13.50;99.90
12872;DHT22;6504;53.766;9.626;2022-08-07T02:15:38;13.50;99.90
12872;DHT22;6504;53.766;9.626;2022-08-07T02:18:11;13.50;99.90
12872;DHT22;6504;53.766;9.626;2022-08-07T02:20:56;13.50;99.90
12872;DHT22;6504;53.766;9.626;2022-08-07T02:23:36;13.50;99.90
12872;DHT22;6504;53.766;9.626;2022-08-07T02:26:13;13.50;99.90
12872;DHT22;6504;53.766;9.626;2022-08-07T02:29:02;13.40;99.90
12872;DHT22;6504;53.766;9.626;2022-08-07T02:31:40;13.40;99.90
12872;DHT22;6504;53.766;9.626;2022-08-07T02:34:15;13.40;99.90
12872;DHT22;6504;53.766;9.626;2022-08-07T02:36:46;13.40;99.90
12872;DHT22;6504;53.766;9.626;2022-08-07T02:39:16;13.30;99.90
12872;DHT22;6504;53.766;9.626;2022-08-07T02:42:09;13.30;99.90
12872;DHT22;6504;53.766;9.626;2022-08-07T02:44:48;13.30;99.90
12872;DHT22;6504;53.766;9.626;2022-08-07T02:47:25;13.30;99.90
12872;DHT22;6504;53.766;9.626;2022-08-07T02:50:12;13.20;99.90
12872;DHT22;6504;53.766;9.626;2022-08-07T02:52:51;13.20;99.90
12872;DHT22;6504;53.766;9.626;2022-08-07T02:55:38;13.20;99.90
12872;DHT22;6504;53.766;9.626;2022-08-07T02:58:39;13.10;99.90
12872;DHT22;6504;53.766;9.626;2022-08-07T03:01:15;13.10;99.90
12872;DHT22;6504;53.766;9.626;2022-08-07T03:04:04;13.00;99.90
12872;DHT22;6504;53.766;9.626;2022-08-07T03:06:41;13.00;99.90
12872;DHT22;6504;53.766;9.626;2022-08-07T03:09:15;13.00;99.90
12872;DHT22;6504;53.766;9.626;2022-08-07T03:12:14;12.90;99.90
12872;DHT22;6504;53.766;9.626;2022-08-07T03:14:59;12.90;99.90
12872;DHT22;6504;53.766;9.626;2022-08-07T03:17:35;12.90;99.90
12872;DHT22;6504;53.766;9.626;2022-08-07T03:20:25;12.80;99.90
12872;DHT22;6504;53.766;9.626;2022-08-07T03:22:57;12.80;99.90
12872;DHT22;6504;53.766;9.626;2022-08-07T03:25:32;12.80;99.90
12872;DHT22;6504;53.766;9.626;2022-08-07T03:28:11;12.80;99.90
12872;DHT22;6504;53.766;9.626;2022-08-07T03:31:04;12.70;99.90
12872;DHT22;6504;53.766;9.626;2022-08-07T03:34:01;12.70;99.90
12872;DHT22;6504;53.766;9.626;2022-08-07T03:36:32;12.70;99.90
12872;DHT22;6504;53.766;9.626;2022-08-07T03:39:07;12.70;99.90
12872;DHT22;6504;53.766;9.626;2022-08-07T03:41:39;12.70;99.90
12872;DHT22;6504;53.766;9.626;2022-08-07T03:44:19;12.60;99.90
12872;DHT22;6504;53.766;9.626;2022-08-07T03:47:09;12.60;99.90
12872;DHT22;6504;53.766;9.626;2022-08-07T03:49:43;12.60;99.90
12872;DHT22;6504;53.766;9.626;2022-08-07T03:52:21;12.60;99.90
12872;DHT22;6504;53.766;9.626;2022-08-07T03:54:56;12.50;99.90
12872;DHT22;6504;53.766;9.626;2022-08-07T03:57:36;12.50;99.90
12872;DHT22;6504;53.766;9.626;2022-08-07T04:00:27;12.50;99.90
12872;DHT22;6504;53.766;9.626;2022-08-07T04:03:04;12.50;99.90
12872;DHT22;6504;53.766;9.626;2022-08-07T04:05:40;12.50;99.90
12872;DHT22;6504;53.766;9.626;2022-08-07T04:08:13;12.50;99.90
12872;DHT22;6504;53.766;9.626;2022-08-07T04:10:48;12.50;99.90
12872;DHT22;6504;53.766;9.626;2022-08-07T04:13:41;12.50;99.90
12872;DHT22;6504;53.766;9.626;2022-08-07T04:16:35;12.60;99.90
12872;DHT22;6504;53.766;9.626;2022-08-07T04:19:30;12.60;99.90
12872;DHT22;6504;53.766;9.626;2022-08-07T04:22:18;12.60;99.90
12872;DHT22;6504;53.766;9.626;2022-08-07T04:24:56;12.70;99.90
12872;DHT22;6504;53.766;9.626;2022-08-07T04:27:28;12.70;99.90
12872;DHT22;6504;53.766;9.626;2022-08-07T04:30:23;12.70;99.90
12872;DHT22;6504;53.766;9.626;2022-08-07T04:33:12;12.80;99.90
12872;DHT22;6504;53.766;9.626;2022-08-07T04:35:45;12.70;99.90
12872;DHT22;6504;53.766;9.626;2022-08-07T04:38:18;12.70;99.90
12872;DHT22;6504;53.766;9.626;2022-08-07T04:40:53;12.70;99.90
12872;DHT22;6504;53.766;9.626;2022-08-07T04:43:27;12.70;99.90
12872;DHT22;6504;53.766;9.626;2022-08-07T04:46:28;12.70;99.90
12872;DHT22;6504;53.766;9.626;2022-08-07T04:49:29;12.70;99.90
12872;DHT22;6504;53.766;9.626;2022-08-07T04:52:13;12.60;99.90
12872;DHT22;6504;53.766;9.626;2022-08-07T04:54:58;12.60;99.90
12872;DHT22;6504;53.766;9.626;2022-08-07T04:57:52;12.60;99.90
12872;DHT22;6504;53.766;9.626;2022-08-07T05:00:52;12.70;99.90
12872;DHT22;6504;53.766;9.626;2022-08-07T05:03:30;12.70;99.90
12872;DHT22;6504;53.766;9.626;2022-08-07T05:06:34;12.70;99.90
12872;DHT22;6504;53.766;9.626;2022-08-07T05:09:26;12.70;99.90
12872;DHT22;6504;53.766;9.626;2022-08-07T05:12:18;12.70;99.90
12872;DHT22;6504;53.766;9.626;2022-08-07T05:14:59;12.80;99.90
12872;DHT22;6504;53.766;9.626;2022-08-07T05:18:00;12.80;99.90
12872;DHT22;6504;53.766;9.626;2022-08-07T05:20:40;12.80;99.90
12872;DHT22;6504;53.766;9.626;2022-08-07T05:23:17;12.70;99.90
12872;DHT22;6504;53.766;9.626;2022-08-07T05:26:03;12.70;99.90
12872;DHT22;6504;53.766;9.626;2022-08-07T05:28:51;12.70;99.90
12872;DHT22;6504;53.766;9.626;2022-08-07T05:31:24;12.70;99.90
12872;DHT22;6504;53.766;9.626;2022-08-07T05:34:02;12.70;99.90
12872;DHT22;6504;53.766;9.626;2022-08-07T05:36:39;12.80;99.90
12872;DHT22;6504;53.766;9.626;2022-08-07T05:39:10;12.80;99.90
12872;DHT22;6504;53.766;9.626;2022-08-07T05:42:10;12.90;99.90
12872;DHT22;6504;53.766;9.626;2022-08-07T05:45:00;13.00;99.90
12872;DHT22;6504;53.766;9.626;2022-08-07T05:47:54;13.00;99.90
12872;DHT22;6504;53.766;9.626;2022-08-07T05:50:30;13.10;99.90
12872;DHT22;6504;53.766;9.626;2022-08-07T05:53:06;13.20;99.90
12872;DHT22;6504;53.766;9.626;2022-08-07T05:55:58;13.30;99.90
12872;DHT22;6504;53.766;9.626;2022-08-07T05:58:38;13.40;99.90
12872;DHT22;6504;53.766;9.626;2022-08-07T06:01:25;13.50;99.90
12872;DHT22;6504;53.766;9.626;2022-08-07T06:04:04;13.60;99.90
12872;DHT22;6504;53.766;9.626;2022-08-07T06:06:36;13.70;99.90
12872;DHT22;6504;53.766;9.626;2022-08-07T06:09:15;13.80;99.90
12872;DHT22;6504;53.766;9.626;2022-08-07T06:11:57;13.90;99.90
12872;DHT22;6504;53.766;9.626;2022-08-07T06:14:36;14.00;99.90
12872;DHT22;6504;53.766;9.626;2022-08-07T06:17:09;14.10;99.90
12872;DHT22;6504;53.766;9.626;2022-08-07T06:20:04;14.20;99.90
12872;DHT22;6504;53.766;9.626;2022-08-07T06:22:52;14.30;99.90
12872;DHT22;6504;53.766;9.626;2022-08-07T06:25:44;14.40;99.90
12872;DHT22;6504;53.766;9.626;2022-08-07T06:28:21;14.50;99.90
12872;DHT22;6504;53.766;9.626;2022-08-07T06:30:56;14.60;99.90
12872;DHT22;6504;53.766;9.626;2022-08-07T06:33:33;14.70;99.90
12872;DHT22;6504;53.766;9.626;2022-08-07T06:36:06;14.80;99.90
12872;DHT22;6504;53.766;9.626;2022-08-07T06:38:41;15.00;99.90
12872;DHT22;6504;53.766;9.626;2022-08-07T06:41:37;15.10;99.90
12872;DHT22;6504;53.766;9.626;2022-08-07T06:44:30;15.20;99.90
12872;DHT22;6504;53.766;9.626;2022-08-07T06:47:10;15.40;99.90
12872;DHT22;6504;53.766;9.626;2022-08-07T06:49:45;15.50;99.90
12872;DHT22;6504;53.766;9.626;2022-08-07T06:52:29;15.70;99.90
12872;DHT22;6504;53.766;9.626;2022-08-07T06:55:05;15.80;99.90
12872;DHT22;6504;53.766;9.626;2022-08-07T06:57:59;15.90;99.90
12872;DHT22;6504;53.766;9.626;2022-08-07T07:00:31;16.10;99.90
12872;DHT22;6504;53.766;9.626;2022-08-07T07:03:03;16.20;99.90
12872;DHT22;6504;53.766;9.626;2022-08-07T07:05:37;16.20;99.90
12872;DHT22;6504;53.766;9.626;2022-08-07T07:08:27;16.20;99.90
12872;DHT22;6504;53.766;9.626;2022-08-07T07:10:59;16.30;99.90
12872;DHT22;6504;53.766;9.626;2022-08-07T07:13:50;16.30;99.90
12872;DHT22;6504;53.766;9.626;2022-08-07T07:16:33;16.30;99.90
12872;DHT22;6504;53.766;9.626;2022-08-07T07:19:18;16.40;99.90
12872;DHT22;6504;53.766;9.626;2022-08-07T07:22:09;16.50;99.90
12872;DHT22;6504;53.766;9.626;2022-08-07T07:24:58;16.60;99.90
12872;DHT22;6504;53.766;9.626;2022-08-07T07:27:50;16.70;99.90
12872;DHT22;6504;53.766;9.626;2022-08-07T07:30:32;16.90;99.90
12872;DHT22;6504;53.766;9.626;2022-08-07T07:33:08;17.00;99.90
12872;DHT22;6504;53.766;9.626;2022-08-07T07:35:40;17.10;99.90
12872;DHT22;6504;53.766;9.626;2022-08-07T07:38:29;17.20;99.90
12872;DHT22;6504;53.766;9.626;2022-08-07T07:41:04;17.30;99.90
12872;DHT22;6504;53.766;9.626;2022-08-07T07:43:37;17.40;99.90
12872;DHT22;6504;53.766;9.626;2022-08-07T07:46:30;17.40;99.90
12872;DHT22;6504;53.766;9.626;2022-08-07T07:49:19;17.50;99.90
12872;DHT22;6504;53.766;9.626;2022-08-07T07:52:11;17.60;99.90
12872;DHT22;6504;53.766;9.626;2022-08-07T07:54:43;17.60;99.90
12872;DHT22;6504;53.766;9.626;2022-08-07T07:57:21;17.60;99.90
12872;DHT22;6504;53.766;9.626;2022-08-07T08:00:12;17.70;99.90
12872;DHT22;6504;53.766;9.626;2022-08-07T08:02:58;17.70;99.90
12872;DHT22;6504;53.766;9.626;2022-08-07T08:05:35;17.70;99.90
12872;DHT22;6504;53.766;9.626;2022-08-07T08:08:25;17.70;99.90
12872;DHT22;6504;53.766;9.626;2022-08-07T08:11:02;17.80;99.90
12872;DHT22;6504;53.766;9.626;2022-08-07T08:13:30;17.90;99.90
12872;DHT22;6504;53.766;9.626;2022-08-07T08:16:28;18.00;99.90
12872;DHT22;6504;53.766;9.626;2022-08-07T08:18:58;18.10;99.90
12872;DHT22;6504;53.766;9.626;2022-08-07T08:21:47;18.20;99.90
12872;DHT22;6504;53.766;9.626;2022-08-07T08:24:41;18.30;99.90
12872;DHT22;6504;53.766;9.626;2022-08-07T08:27:49;18.40;99.90
12872;DHT22;6504;53.766;9.626;2022-08-07T08:30:24;18.50;99.90
12872;DHT22;6504;53.766;9.626;2022-08-07T08:33:00;18.60;99.90
12872;DHT22;6504;53.766;9.626;2022-08-07T08:35:30;18.70;99.90
12872;DHT22;6504;53.766;9.626;2022-08-07T08:38:14;18.80;99.90
12872;DHT22;6504;53.766;9.626;2022-08-07T08:40:54;18.90;99.90
12872;DHT22;6504;53.766;9.626;2022-08-07T08:43:30;19.00;99.90
12872;DHT22;6504;53.766;9.626;2022-08-07T08:46:27;19.10;99.90
12872;DHT22;6504;53.766;9.626;2022-08-07T08:49:01;19.30;99.90
12872;DHT22;6504;53.766;9.626;2022-08-07T08:51:38;19.30;99.90
12872;DHT22;6504;53.766;9.626;2022-08-07T08:54:33;19.50;99.90
12872;DHT22;6504;53.766;9.626;2022-08-07T08:57:24;19.60;99.90
12872;DHT22;6504;53.766;9.626;2022-08-07T09:00:02;19.70;99.90
12872;DHT22;6504;53.766;9.626;2022-08-07T09:02:40;19.70;99.90
12872;DHT22;6504;53.766;9.626;2022-08-07T09:05:28;19.80;99.90
12872;DHT22;6504;53.766;9.626;2022-08-07T09:08:24;19.90;99.90
12872;DHT22;6504;53.766;9.626;2022-08-07T09:11:10;20.00;99.90
12872;DHT22;6504;53.766;9.626;2022-08-07T09:14:08;20.10;99.90
12872;DHT22;6504;53.766;9.626;2022-08-07T09:16:58;20.20;99.90
12872;DHT22;6504;53.766;9.626;2022-08-07T09:19:40;20.30;99.90
12872;DHT22;6504;53.766;9.626;2022-08-07T09:22:44;20.40;99.90
12872;DHT22;6504;53.766;9.626;2022-08-07T09:25:41;20.40;99.90
12872;DHT22;6504;53.766;9.626;2022-08-07T09:28:28;20.50;99.90
12872;DHT22;6504;53.766;9.626;2022-08-07T09:31:30;20.50;99.90
12872;DHT22;6504;53.766;9.626;2022-08-07T09:34:21;20.60;99.90
12872;DHT22;6504;53.766;9.626;2022-08-07T09:36:59;20.80;99.90
12872;DHT22;6504;53.766;9.626;2022-08-07T09:39:44;20.90;99.90
12872;DHT22;6504;53.766;9.626;2022-08-07T09:42:36;20.90;99.90
12872;DHT22;6504;53.766;9.626;2022-08-07T09:45:13;21.10;99.90
12872;DHT22;6504;53.766;9.626;2022-08-07T09:48:12;21.10;99.90
12872;DHT22;6504;53.766;9.626;2022-08-07T09:50:58;21.20;99.90
12872;DHT22;6504;53.766;9.626;2022-08-07T09:53:44;21.40;99.90
12872;DHT22;6504;53.766;9.626;2022-08-07T09:56:50;21.40;99.90
12872;DHT22;6504;53.766;9.626;2022-08-07T09:59:40;21.50;99.90
12872;DHT22;6504;53.766;9.626;2022-08-07T10:06:00;21.50;99.90
12872;DHT22;6504;53.766;9.626;2022-08-07T10:09:10;21.60;99.90
12872;DHT22;6504;53.766;9.626;2022-08-07T10:12:13;21.80;99.90
12872;DHT22;6504;53.766;9.626;2022-08-07T10:15:09;21.80;99.90
12872;DHT22;6504;53.766;9.626;2022-08-07T10:18:07;21.90;99.90
12872;DHT22;6504;53.766;9.626;2022-08-07T10:20:48;22.10;99.90
12872;DHT22;6504;53.766;9.626;2022-08-07T10:23:41;22.10;99.90
12872;DHT22;6504;53.766;9.626;2022-08-07T10:26:46;22.20;99.90
12872;DHT22;6504;53.766;9.626;2022-08-07T10:29:51;22.30;99.90
12872;DHT22;6504;53.766;9.626;2022-08-07T10:32:55;22.40;99.90
12872;DHT22;6504;53.766;9.626;2022-08-07T10:35:29;22.40;99.90
12872;DHT22;6504;53.766;9.626;2022-08-07T10:38:38;22.50;99.90
12872;DHT22;6504;53.766;9.626;2022-08-07T10:41:22;22.50;99.90
12872;DHT22;6504;53.766;9.626;2022-08-07T10:44:16;22.50;99.90
12872;DHT22;6504;53.766;9.626;2022-08-07T10:47:12;22.50;99.90
12872;DHT22;6504;53.766;9.626;2022-08-07T10:50:11;22.60;99.90
12872;DHT22;6504;53.766;9.626;2022-08-07T10:52:52;22.70;99.90
12872;DHT22;6504;53.766;9.626;2022-08-07T10:55:34;22.70;99.90
12872;DHT22;6504;53.766;9.626;2022-08-07T10:58:37;22.80;99.90
12872;DHT22;6504;53.766;9.626;2022-08-07T11:01:24;22.90;99.90
12872;DHT22;6504;53.766;9.626;2022-08-07T11:04:28;23.00;99.90
12872;DHT22;6504;53.766;9.626;2022-08-07T11:07:15;23.00;99.90
12872;DHT22;6504;53.766;9.626;2022-08-07T11:10:13;23.00;99.90
12872;DHT22;6504;53.766;9.626;2022-08-07T11:12:51;22.90;99.90
12872;DHT22;6504;53.766;9.626;2022-08-07T11:15:33;22.90;99.90
12872;DHT22;6504;53.766;9.626;2022-08-07T11:18:13;23.00;99.90
12872;DHT22;6504;53.766;9.626;2022-08-07T11:20:55;23.10;99.90
12872;DHT22;6504;53.766;9.626;2022-08-07T11:23:38;23.10;99.90
12872;DHT22;6504;53.766;9.626;2022-08-07T11:26:22;23.10;99.90
12872;DHT22;6504;53.766;9.626;2022-08-07T11:29:02;23.20;99.90
12872;DHT22;6504;53.766;9.626;2022-08-07T11:32:03;23.20;99.90
12872;DHT22;6504;53.766;9.626;2022-08-07T11:34:37;23.30;99.90
12872;DHT22;6504;53.766;9.626;2022-08-07T11:37:21;23.40;99.90
12872;DHT22;6504;53.766;9.626;2022-08-07T11:40:21;23.40;99.90
12872;DHT22;6504;53.766;9.626;2022-08-07T11:42:58;23.50;99.90
12872;DHT22;6504;53.766;9.626;2022-08-07T11:45:38;23.60;99.90
12872;DHT22;6504;53.766;9.626;2022-08-07T11:51:54;23.70;99.90
12872;DHT22;6504;53.766;9.626;2022-08-07T11:57:27;23.80;99.90
12872;DHT22;6504;53.766;9.626;2022-08-07T12:00:24;23.90;99.90
12872;DHT22;6504;53.766;9.626;2022-08-07T12:03:17;24.10;99.90
12872;DHT22;6504;53.766;9.626;2022-08-07T12:06:27;24.20;99.90
12872;DHT22;6504;53.766;9.626;2022-08-07T12:09:10;24.40;99.90
12872;DHT22;6504;53.766;9.626;2022-08-07T12:11:57;24.50;99.90
12872;DHT22;6504;53.766;9.626;2022-08-07T12:14:48;24.70;99.90
12872;DHT22;6504;53.766;9.626;2022-08-07T12:17:32;24.80;99.90
12872;DHT22;6504;53.766;9.626;2022-08-07T12:20:10;24.90;99.90
12872;DHT22;6504;53.766;9.626;2022-08-07T12:23:24;25.00;99.90
12872;DHT22;6504;53.766;9.626;2022-08-07T12:26:25;25.00;99.90
12872;DHT22;6504;53.766;9.626;2022-08-07T12:29:10;24.90;99.90
12872;DHT22;6504;53.766;9.626;2022-08-07T12:31:47;24.90;99.90
12872;DHT22;6504;53.766;9.626;2022-08-07T12:34:34;25.00;99.90
12872;DHT22;6504;53.766;9.626;2022-08-07T12:37:06;25.10;99.90
12872;DHT22;6504;53.766;9.626;2022-08-07T12:39:56;25.00;99.90
12872;DHT22;6504;53.766;9.626;2022-08-07T12:42:27;25.00;99.90
12872;DHT22;6504;53.766;9.626;2022-08-07T12:45:02;25.00;99.90
12872;DHT22;6504;53.766;9.626;2022-08-07T12:47:41;25.00;99.90
12872;DHT22;6504;53.766;9.626;2022-08-07T12:50:21;25.10;99.90
12872;DHT22;6504;53.766;9.626;2022-08-07T12:53:13;25.20;99.90
12872;DHT22;6504;53.766;9.626;2022-08-07T12:55:53;25.10;99.90
12872;DHT22;6504;53.766;9.626;2022-08-07T12:58:34;25.00;99.90
12872;DHT22;6504;53.766;9.626;2022-08-07T13:01:15;24.90;99.90
12872;DHT22;6504;53.766;9.626;2022-08-07T13:04:06;24.80;99.90
12872;DHT22;6504;53.766;9.626;2022-08-07T13:07:08;24.70;99.90
12872;DHT22;6504;53.766;9.626;2022-08-07T13:10:21;24.70;99.90
12872;DHT22;6504;53.766;9.626;2022-08-07T13:13:27;24.80;99.90
12872;DHT22;6504;53.766;9.626;2022-08-07T13:16:21;24.80;99.90
12872;DHT22;6504;53.766;9.626;2022-08-07T13:19:01;24.70;99.90
12872;DHT22;6504;53.766;9.626;2022-08-07T13:21:48;24.60;99.90
12872;DHT22;6504;53.766;9.626;2022-08-07T13:24:39;24.50;99.90
12872;DHT22;6504;53.766;9.626;2022-08-07T13:27:22;24.50;99.90
12872;DHT22;6504;53.766;9.626;2022-08-07T13:30:12;24.50;99.90
12872;DHT22;6504;53.766;9.626;2022-08-07T13:33:04;24.40;99.90
12872;DHT22;6504;53.766;9.626;2022-08-07T13:36:02;24.40;99.90
12872;DHT22;6504;53.766;9.626;2022-08-07T13:38:41;24.40;99.90
12872;DHT22;6504;53.766;9.626;2022-08-07T13:41:24;24.30;99.90
12872;DHT22;6504;53.766;9.626;2022-08-07T13:44:00;24.30;99.90
12872;DHT22;6504;53.766;9.626;2022-08-07T13:46:40;24.30;99.90
12872;DHT22;6504;53.766;9.626;2022-08-07T13:49:17;24.20;99.90
12872;DHT22;6504;53.766;9.626;2022-08-07T13:52:07;24.20;99.90
12872;DHT22;6504;53.766;9.626;2022-08-07T13:54:56;24.20;99.90
12872;DHT22;6504;53.766;9.626;2022-08-07T13:57:32;24.20;99.90
12872;DHT22;6504;53.766;9.626;2022-08-07T14:00:10;24.30;99.90
12872;DHT22;6504;53.766;9.626;2022-08-07T14:02:55;24.30;99.90
12872;DHT22;6504;53.766;9.626;2022-08-07T14:05:25;24.40;99.90
12872;DHT22;6504;53.766;9.626;2022-08-07T14:08:06;24.40;99.90
12872;DHT22;6504;53.766;9.626;2022-08-07T14:10:37;24.40;99.90
12872;DHT22;6504;53.766;9.626;2022-08-07T14:13:09;24.40;99.90
12872;DHT22;6504;53.766;9.626;2022-08-07T14:15:57;24.50;99.90
12872;DHT22;6504;53.766;9.626;2022-08-07T14:18:30;24.50;99.90
12872;DHT22;6504;53.766;9.626;2022-08-07T14:21:04;24.50;99.90
12872;DHT22;6504;53.766;9.626;2022-08-07T14:23:49;24.50;99.90
12872;DHT22;6504;53.766;9.626;2022-08-07T14:26:36;24.50;99.90
12872;DHT22;6504;53.766;9.626;2022-08-07T14:29:08;24.60;99.90
12872;DHT22;6504;53.766;9.626;2022-08-07T14:32:00;24.70;99.90
12872;DHT22;6504;53.766;9.626;2022-08-07T14:34:31;24.80;99.90
12872;DHT22;6504;53.766;9.626;2022-08-07T14:37:13;24.80;99.90
12872;DHT22;6504;53.766;9.626;2022-08-07T14:39:47;25.00;99.90
12872;DHT22;6504;53.766;9.626;2022-08-07T14:42:36;25.00;99.90
12872;DHT22;6504;53.766;9.626;2022-08-07T14:45:27;25.00;99.90
12872;DHT22;6504;53.766;9.626;2022-08-07T14:48:21;25.10;99.90
12872;DHT22;6504;53.766;9.626;2022-08-07T14:50:55;25.10;99.90
12872;DHT22;6504;53.766;9.626;2022-08-07T14:53:37;25.10;99.90
12872;DHT22;6504;53.766;9.626;2022-08-07T14:56:30;25.00;99.90
12872;DHT22;6504;53.766;9.626;2022-08-07T14:59:03;25.00;99.90
12872;DHT22;6504;53.766;9.626;2022-08-07T15:02:09;25.00;99.90
12872;DHT22;6504;53.766;9.626;2022-08-07T15:05:02;25.00;99.90
12872;DHT22;6504;53.766;9.626;2022-08-07T15:07:48;25.10;99.90
12872;DHT22;6504;53.766;9.626;2022-08-07T15:10:19;25.10;99.90
12872;DHT22;6504;53.766;9.626;2022-08-07T15:12:55;25.20;99.90
12872;DHT22;6504;53.766;9.626;2022-08-07T15:15:32;25.20;99.90
12872;DHT22;6504;53.766;9.626;2022-08-07T15:18:09;25.10;99.90
12872;DHT22;6504;53.766;9.626;2022-08-07T15:21:03;25.10;99.90
12872;DHT22;6504;53.766;9.626;2022-08-07T15:23:57;25.10;99.90
12872;DHT22;6504;53.766;9.626;2022-08-07T15:26:50;25.10;99.90
12872;DHT22;6504;53.766;9.626;2022-08-07T15:29:29;25.20;99.90
12872;DHT22;6504;53.766;9.626;2022-08-07T15:32:23;25.20;99.90
12872;DHT22;6504;53.766;9.626;2022-08-07T15:35:11;25.10;99.90
12872;DHT22;6504;53.766;9.626;2022-08-07T15:37:49;25.20;99.90
12872;DHT22;6504;53.766;9.626;2022-08-07T15:40:38;25.20;99.90
12872;DHT22;6504;53.766;9.626;2022-08-07T15:43:27;25.30;99.90
12872;DHT22;6504;53.766;9.626;2022-08-07T15:46:20;25.30;99.90
12872;DHT22;6504;53.766;9.626;2022-08-07T15:49:08;25.20;99.90
12872;DHT22;6504;53.766;9.626;2022-08-07T15:51:43;25.10;99.90
12872;DHT22;6504;53.766;9.626;2022-08-07T15:54:30;25.00;99.90
12872;DHT22;6504;53.766;9.626;2022-08-07T15:57:10;25.00;99.90
12872;DHT22;6504;53.766;9.626;2022-08-07T16:00:00;24.90;99.90
12872;DHT22;6504;53.766;9.626;2022-08-07T16:02:37;24.80;99.90
12872;DHT22;6504;53.766;9.626;2022-08-07T16:05:11;24.70;99.90
12872;DHT22;6504;53.766;9.626;2022-08-07T16:07:42;24.60;99.90
12872;DHT22;6504;53.766;9.626;2022-08-07T16:10:37;24.50;99.90
12872;DHT22;6504;53.766;9.626;2022-08-07T16:19:58;24.50;99.90
12872;DHT22;6504;53.766;9.626;2022-08-07T16:22:42;24.50;99.90
12872;DHT22;6504;53.766;9.626;2022-08-07T16:25:47;24.30;99.90
12872;DHT22;6504;53.766;9.626;2022-08-07T16:28:37;24.20;99.90
12872;DHT22;6504;53.766;9.626;2022-08-07T16:31:39;24.20;99.90
12872;DHT22;6504;53.766;9.626;2022-08-07T16:34:37;24.20;99.90
12872;DHT22;6504;53.766;9.626;2022-08-07T16:37:26;24.20;99.90
12872;DHT22;6504;53.766;9.626;2022-08-07T16:44:00;24.10;99.90
12872;DHT22;6504;53.766;9.626;2022-08-07T16:47:09;24.10;99.90
12872;DHT22;6504;53.766;9.626;2022-08-07T16:50:16;24.00;99.90
12872;DHT22;6504;53.766;9.626;2022-08-07T16:53:21;23.90;99.90
12872;DHT22;6504;53.766;9.626;2022-08-07T16:56:17;23.80;99.90
12872;DHT22;6504;53.766;9.626;2022-08-07T16:59:05;23.80;99.90
12872;DHT22;6504;53.766;9.626;2022-08-07T17:01:54;23.70;99.90
12872;DHT22;6504;53.766;9.626;2022-08-07T17:04:35;23.70;99.90
12872;DHT22;6504;53.766;9.626;2022-08-07T17:07:30;23.70;99.90
12872;DHT22;6504;53.766;9.626;2022-08-07T17:10:28;23.60;99.90
12872;DHT22;6504;53.766;9.626;2022-08-07T17:13:23;23.60;99.90
12872;DHT22;6504;53.766;9.626;2022-08-07T17:16:20;23.50;99.90
12872;DHT22;6504;53.766;9.626;2022-08-07T17:19:02;23.50;99.90
12872;DHT22;6504;53.766;9.626;2022-08-07T17:21:44;23.40;99.90
12872;DHT22;6504;53.766;9.626;2022-08-07T17:24:47;23.30;99.90
12872;DHT22;6504;53.766;9.626;2022-08-07T17:27:27;23.20;99.90
12872;DHT22;6504;53.766;9.626;2022-08-07T17:30:04;23.10;99.90
12872;DHT22;6504;53.766;9.626;2022-08-07T17:32:58;23.10;99.90
12872;DHT22;6504;53.766;9.626;2022-08-07T17:35:55;23.00;99.90
12872;DHT22;6504;53.766;9.626;2022-08-07T17:38:33;22.90;99.90
12872;DHT22;6504;53.766;9.626;2022-08-07T17:41:11;22.80;99.90
12872;DHT22;6504;53.766;9.626;2022-08-07T17:44:08;22.70;99.90
12872;DHT22;6504;53.766;9.626;2022-08-07T17:47:05;22.70;99.90
12872;DHT22;6504;53.766;9.626;2022-08-07T17:49:49;22.70;99.90
12872;DHT22;6504;53.766;9.626;2022-08-07T17:52:24;22.60;99.90
12872;DHT22;6504;53.766;9.626;2022-08-07T17:55:03;22.60;99.90
12872;DHT22;6504;53.766;9.626;2022-08-07T17:57:40;22.60;99.90
12872;DHT22;6504;53.766;9.626;2022-08-07T18:00:32;22.50;99.90
12872;DHT22;6504;53.766;9.626;2022-08-07T18:03:22;22.50;99.90